sensor_id;sensor_type;location;lat;lon;timestamp;temperature;humidity
4107;DHT22;21906;50.812;7.132;2022-07-18T00:00:16;20.70;54.80
4107;DHT22;21906;50.812;7.132;2022-07-18T00:02:42;20.70;54.80
4107;DHT22;21906;50.812;7.132;2022-07-18T00:05:08;20.60;54.80
4107;DHT22;21906;50.812;7.132;2022-07-18T00:07:34;20.60;54.80
4107;DHT22;21906;50.812;7.132;2022-07-18T00:09:59;20.60;54.60
4107;DHT22;21906;50.812;7.132;2022-07-18T00:12:25;20.60;54.60
4107;DHT22;21906;50.812;7.132;2022-07-18T00:14:51;20.50;54.70
4107;DHT22;21906;50.812;7.132;2022-07-18T00:17:17;20.50;54.90
4107;DHT22;21906;50.812;7.132;2022-07-18T00:19:42;20.40;55.00
4107;DHT22;21906;50.812;7.132;2022-07-18T00:22:08;20.40;55.20
4107;DHT22;21906;50.812;7.132;2022-07-18T00:24:34;20.40;55.50
4107;DHT22;21906;50.812;7.132;2022-07-18T00:27:00;20.30;55.80
4107;DHT22;21906;50.812;7.132;2022-07-18T00:29:27;20.30;55.70
4107;DHT22;21906;50.812;7.132;2022-07-18T00:31:52;20.30;55.70
4107;DHT22;21906;50.812;7.132;2022-07-18T00:34:18;20.30;55.80
4107;DHT22;21906;50.812;7.132;2022-07-18T00:36:44;20.30;55.90
4107;DHT22;21906;50.812;7.132;2022-07-18T00:39:09;20.20;55.90
4107;DHT22;21906;50.812;7.132;2022-07-18T00:41:35;20.20;55.90
4107;DHT22;21906;50.812;7.132;2022-07-18T00:44:01;20.10;55.80
4107;DHT22;21906;50.812;7.132;2022-07-18T00:46:27;20.20;56.00
4107;DHT22;21906;50.812;7.132;2022-07-18T00:48:54;20.10;56.10
4107;DHT22;21906;50.812;7.132;2022-07-18T00:51:20;20.10;56.00
4107;DHT22;21906;50.812;7.132;2022-07-18T00:53:47;20.10;56.10
4107;DHT22;21906;50.812;7.132;2022-07-18T00:56:17;20.00;56.40
4107;DHT22;21906;50.812;7.132;2022-07-18T00:58:44;19.90;56.50
4107;DHT22;21906;50.812;7.132;2022-07-18T01:01:10;19.90;56.70
4107;DHT22;21906;50.812;7.132;2022-07-18T01:03:54;19.90;56.70
4107;DHT22;21906;50.812;7.132;2022-07-18T01:06:20;19.90;56.50
4107;DHT22;21906;50.812;7.132;2022-07-18T01:08:46;19.80;56.50
4107;DHT22;21906;50.812;7.132;2022-07-18T01:11:12;19.80;56.60
4107;DHT22;21906;50.812;7.132;2022-07-18T01:13:39;19.80;56.50
4107;DHT22;21906;50.812;7.132;2022-07-18T01:16:05;19.80;56.50
4107;DHT22;21906;50.812;7.132;2022-07-18T01:18:30;19.80;56.40
4107;DHT22;21906;50.812;7.132;2022-07-18T01:20:56;19.80;56.10
4107;DHT22;21906;50.812;7.132;2022-07-18T01:23:22;19.60;55.70
4107;DHT22;21906;50.812;7.132;2022-07-18T01:25:48;19.50;54.90
4107;DHT22;21906;50.812;7.132;2022-07-18T01:28:13;19.50;55.10
4107;DHT22;21906;50.812;7.132;2022-07-18T01:30:39;19.50;55.00
4107;DHT22;21906;50.812;7.132;2022-07-18T01:33:05;19.50;54.90
4107;DHT22;21906;50.812;7.132;2022-07-18T01:35:32;19.60;54.70
4107;DHT22;21906;50.812;7.132;2022-07-18T01:37:59;19.60;54.70
4107;DHT22;21906;50.812;7.132;2022-07-18T01:40:26;19.50;55.10
4107;DHT22;21906;50.812;7.132;2022-07-18T01:42:52;19.60;54.80
4107;DHT22;21906;50.812;7.132;2022-07-18T01:45:19;19.60;55.00
4107;DHT22;21906;50.812;7.132;2022-07-18T01:47:45;19.60;55.00
4107;DHT22;21906;50.812;7.132;2022-07-18T01:50:11;19.50;55.00
4107;DHT22;21906;50.812;7.132;2022-07-18T01:52:38;19.50;54.90
4107;DHT22;21906;50.812;7.132;2022-07-18T01:55:06;19.50;54.80
4107;DHT22;21906;50.812;7.132;2022-07-18T01:57:32;19.50;54.50
4107;DHT22;21906;50.812;7.132;2022-07-18T01:59:58;19.40;54.60
4107;DHT22;21906;50.812;7.132;2022-07-18T02:02:23;19.40;54.40
4107;DHT22;21906;50.812;7.132;2022-07-18T02:04:49;19.40;54.40
4107;DHT22;21906;50.812;7.132;2022-07-18T02:07:35;19.40;54.20
4107;DHT22;21906;50.812;7.132;2022-07-18T02:10:07;19.40;54.30
4107;DHT22;21906;50.812;7.132;2022-07-18T02:12:33;19.40;54.40
4107;DHT22;21906;50.812;7.132;2022-07-18T02:14:59;19.40;54.40
4107;DHT22;21906;50.812;7.132;2022-07-18T02:17:24;19.40;54.40
4107;DHT22;21906;50.812;7.132;2022-07-18T02:19:50;19.40;54.50
4107;DHT22;21906;50.812;7.132;2022-07-18T02:22:16;19.40;54.60
4107;DHT22;21906;50.812;7.132;2022-07-18T02:24:42;19.30;54.60
4107;DHT22;21906;50.812;7.132;2022-07-18T02:27:08;19.30;54.70
4107;DHT22;21906;50.812;7.132;2022-07-18T02:29:34;19.30;54.80
4107;DHT22;21906;50.812;7.132;2022-07-18T02:31:59;19.30;54.80
4107;DHT22;21906;50.812;7.132;2022-07-18T02:34:25;19.30;55.00
4107;DHT22;21906;50.812;7.132;2022-07-18T02:36:50;19.20;55.20
4107;DHT22;21906;50.812;7.132;2022-07-18T02:39:17;19.20;55.40
4107;DHT22;21906;50.812;7.132;2022-07-18T02:41:43;19.20;55.50
4107;DHT22;21906;50.812;7.132;2022-07-18T02:44:09;19.10;55.70
4107;DHT22;21906;50.812;7.132;2022-07-18T02:46:35;19.10;55.70
4107;DHT22;21906;50.812;7.132;2022-07-18T02:49:02;19.00;55.80
4107;DHT22;21906;50.812;7.132;2022-07-18T02:51:28;19.00;55.90
4107;DHT22;21906;50.812;7.132;2022-07-18T02:53:54;19.00;56.10
4107;DHT22;21906;50.812;7.132;2022-07-18T02:56:20;18.90;56.00
4107;DHT22;21906;50.812;7.132;2022-07-18T02:58:46;18.90;56.00
4107;DHT22;21906;50.812;7.132;2022-07-18T03:01:11;18.90;55.90
4107;DHT22;21906;50.812;7.132;2022-07-18T03:03:37;18.90;55.90
4107;DHT22;21906;50.812;7.132;2022-07-18T03:06:03;18.80;55.90
4107;DHT22;21906;50.812;7.132;2022-07-18T03:08:29;18.80;56.00
4107;DHT22;21906;50.812;7.132;2022-07-18T03:10:55;18.80;56.10
4107;DHT22;21906;50.812;7.132;2022-07-18T03:13:21;18.70;56.10
4107;DHT22;21906;50.812;7.132;2022-07-18T03:15:46;18.70;56.20
4107;DHT22;21906;50.812;7.132;2022-07-18T03:18:12;18.60;56.20
4107;DHT22;21906;50.812;7.132;2022-07-18T03:20:37;18.60;56.30
4107;DHT22;21906;50.812;7.132;2022-07-18T03:23:07;18.50;56.50
4107;DHT22;21906;50.812;7.132;2022-07-18T03:25:33;18.50;56.40
4107;DHT22;21906;50.812;7.132;2022-07-18T03:27:59;18.40;56.40
4107;DHT22;21906;50.812;7.132;2022-07-18T03:30:25;18.40;56.30
4107;DHT22;21906;50.812;7.132;2022-07-18T03:32:50;18.40;56.40
4107;DHT22;21906;50.812;7.132;2022-07-18T03:35:17;18.40;56.50
4107;DHT22;21906;50.812;7.132;2022-07-18T03:37:42;18.30;56.80
4107;DHT22;21906;50.812;7.132;2022-07-18T03:40:09;18.40;57.00
4107;DHT22;21906;50.812;7.132;2022-07-18T03:42:39;18.40;56.90
4107;DHT22;21906;50.812;7.132;2022-07-18T03:45:06;18.40;57.10
4107;DHT22;21906;50.812;7.132;2022-07-18T03:47:32;18.40;56.90
4107;DHT22;21906;50.812;7.132;2022-07-18T03:49:57;18.40;56.90
4107;DHT22;21906;50.812;7.132;2022-07-18T03:52:23;18.40;57.00
4107;DHT22;21906;50.812;7.132;2022-07-18T03:54:49;18.40;57.00
4107;DHT22;21906;50.812;7.132;2022-07-18T03:57:14;18.30;56.90
4107;DHT22;21906;50.812;7.132;2022-07-18T03:59:40;18.30;57.10
4107;DHT22;21906;50.812;7.132;2022-07-18T04:02:06;18.40;57.10
4107;DHT22;21906;50.812;7.132;2022-07-18T04:04:31;18.40;57.20
4107;DHT22;21906;50.812;7.132;2022-07-18T04:06:57;18.30;57.40
4107;DHT22;21906;50.812;7.132;2022-07-18T04:09:26;18.30;57.60
4107;DHT22;21906;50.812;7.132;2022-07-18T04:11:52;18.30;57.60
4107;DHT22;21906;50.812;7.132;2022-07-18T04:14:18;18.30;57.60
4107;DHT22;21906;50.812;7.132;2022-07-18T04:16:44;18.30;57.70
4107;DHT22;21906;50.812;7.132;2022-07-18T04:19:09;18.30;57.70
4107;DHT22;21906;50.812;7.132;2022-07-18T04:21:35;18.20;57.80
4107;DHT22;21906;50.812;7.132;2022-07-18T04:24:01;18.20;57.70
4107;DHT22;21906;50.812;7.132;2022-07-18T04:26:27;18.20;57.50
4107;DHT22;21906;50.812;7.132;2022-07-18T04:28:52;18.20;57.60
4107;DHT22;21906;50.812;7.132;2022-07-18T04:31:18;18.20;57.60
4107;DHT22;21906;50.812;7.132;2022-07-18T04:33:44;18.30;57.80
4107;DHT22;21906;50.812;7.132;2022-07-18T04:36:10;18.30;57.60
4107;DHT22;21906;50.812;7.132;2022-07-18T04:38:35;18.20;57.70
4107;DHT22;21906;50.812;7.132;2022-07-18T04:41:06;18.20;57.80
4107;DHT22;21906;50.812;7.132;2022-07-18T04:43:32;18.10;57.90
4107;DHT22;21906;50.812;7.132;2022-07-18T04:45:58;18.20;57.80
4107;DHT22;21906;50.812;7.132;2022-07-18T04:48:23;18.20;57.40
4107;DHT22;21906;50.812;7.132;2022-07-18T04:50:49;18.20;57.30
4107;DHT22;21906;50.812;7.132;2022-07-18T04:53:16;18.20;57.00
4107;DHT22;21906;50.812;7.132;2022-07-18T04:55:41;18.30;56.80
4107;DHT22;21906;50.812;7.132;2022-07-18T04:58:08;18.40;56.70
4107;DHT22;21906;50.812;7.132;2022-07-18T05:00:34;18.40;56.80
4107;DHT22;21906;50.812;7.132;2022-07-18T05:02:59;18.40;56.50
4107;DHT22;21906;50.812;7.132;2022-07-18T05:05:26;18.50;56.50
4107;DHT22;21906;50.812;7.132;2022-07-18T05:07:53;18.50;56.50
4107;DHT22;21906;50.812;7.132;2022-07-18T05:10:20;18.30;56.80
4107;DHT22;21906;50.812;7.132;2022-07-18T05:12:48;18.40;56.90
4107;DHT22;21906;50.812;7.132;2022-07-18T05:15:17;18.40;56.90
4107;DHT22;21906;50.812;7.132;2022-07-18T05:17:43;18.40;56.40
4107;DHT22;21906;50.812;7.132;2022-07-18T05:20:12;18.50;56.30
4107;DHT22;21906;50.812;7.132;2022-07-18T05:22:38;18.60;56.10
4107;DHT22;21906;50.812;7.132;2022-07-18T05:25:05;18.70;55.70
4107;DHT22;21906;50.812;7.132;2022-07-18T05:27:31;18.70;55.70
4107;DHT22;21906;50.812;7.132;2022-07-18T05:29:57;18.80;55.70
4107;DHT22;21906;50.812;7.132;2022-07-18T05:32:25;18.90;55.80
4107;DHT22;21906;50.812;7.132;2022-07-18T05:34:50;18.80;56.30
4107;DHT22;21906;50.812;7.132;2022-07-18T05:37:16;18.90;55.90
4107;DHT22;21906;50.812;7.132;2022-07-18T05:39:42;18.80;55.60
4107;DHT22;21906;50.812;7.132;2022-07-18T05:42:07;18.90;55.70
4107;DHT22;21906;50.812;7.132;2022-07-18T05:44:33;18.90;55.30
4107;DHT22;21906;50.812;7.132;2022-07-18T05:46:59;19.00;55.50
4107;DHT22;21906;50.812;7.132;2022-07-18T05:49:24;19.10;55.50
4107;DHT22;21906;50.812;7.132;2022-07-18T05:51:50;19.20;55.40
4107;DHT22;21906;50.812;7.132;2022-07-18T05:54:16;19.30;55.20
4107;DHT22;21906;50.812;7.132;2022-07-18T05:56:48;19.20;54.50
4107;DHT22;21906;50.812;7.132;2022-07-18T05:59:15;19.20;55.30
4107;DHT22;21906;50.812;7.132;2022-07-18T06:01:41;19.40;54.90
4107;DHT22;21906;50.812;7.132;2022-07-18T06:04:07;19.50;54.90
4107;DHT22;21906;50.812;7.132;2022-07-18T06:06:32;19.50;54.30
4107;DHT22;21906;50.812;7.132;2022-07-18T06:08:58;19.70;54.00
4107;DHT22;21906;50.812;7.132;2022-07-18T06:11:24;19.80;55.50
4107;DHT22;21906;50.812;7.132;2022-07-18T06:13:49;19.90;53.00
4107;DHT22;21906;50.812;7.132;2022-07-18T06:16:15;20.00;52.30
4107;DHT22;21906;50.812;7.132;2022-07-18T06:18:41;20.10;52.90
4107;DHT22;21906;50.812;7.132;2022-07-18T06:21:07;20.20;51.10
4107;DHT22;21906;50.812;7.132;2022-07-18T06:23:32;20.30;51.20
4107;DHT22;21906;50.812;7.132;2022-07-18T06:25:58;20.40;50.40
4107;DHT22;21906;50.812;7.132;2022-07-18T06:28:24;20.40;52.80
4107;DHT22;21906;50.812;7.132;2022-07-18T06:30:51;20.50;51.30
4107;DHT22;21906;50.812;7.132;2022-07-18T06:33:17;20.60;50.80
4107;DHT22;21906;50.812;7.132;2022-07-18T06:35:43;20.70;51.30
4107;DHT22;21906;50.812;7.132;2022-07-18T06:38:08;20.80;49.10
4107;DHT22;21906;50.812;7.132;2022-07-18T06:40:34;20.90;48.90
4107;DHT22;21906;50.812;7.132;2022-07-18T06:43:00;20.90;49.30
4107;DHT22;21906;50.812;7.132;2022-07-18T06:45:25;21.10;47.60
4107;DHT22;21906;50.812;7.132;2022-07-18T06:47:51;21.30;48.40
4107;DHT22;21906;50.812;7.132;2022-07-18T06:50:17;21.40;48.30
4107;DHT22;21906;50.812;7.132;2022-07-18T06:52:44;21.40;48.90
4107;DHT22;21906;50.812;7.132;2022-07-18T06:55:12;21.50;47.90
4107;DHT22;21906;50.812;7.132;2022-07-18T06:57:38;21.40;47.80
4107;DHT22;21906;50.812;7.132;2022-07-18T07:00:06;21.60;47.10
4107;DHT22;21906;50.812;7.132;2022-07-18T07:02:34;21.60;46.70
4107;DHT22;21906;50.812;7.132;2022-07-18T07:04:59;21.70;46.90
4107;DHT22;21906;50.812;7.132;2022-07-18T07:07:25;21.80;46.20
4107;DHT22;21906;50.812;7.132;2022-07-18T07:09:51;21.90;46.30
4107;DHT22;21906;50.812;7.132;2022-07-18T07:12:17;22.00;47.10
4107;DHT22;21906;50.812;7.132;2022-07-18T07:14:42;22.10;46.50
4107;DHT22;21906;50.812;7.132;2022-07-18T07:17:08;22.20;45.30
4107;DHT22;21906;50.812;7.132;2022-07-18T07:19:34;22.30;46.00
4107;DHT22;21906;50.812;7.132;2022-07-18T07:21:59;22.30;45.70
4107;DHT22;21906;50.812;7.132;2022-07-18T07:24:25;22.40;45.30
4107;DHT22;21906;50.812;7.132;2022-07-18T07:26:51;22.50;45.40
4107;DHT22;21906;50.812;7.132;2022-07-18T07:29:16;22.60;45.70
4107;DHT22;21906;50.812;7.132;2022-07-18T07:31:42;22.60;46.90
4107;DHT22;21906;50.812;7.132;2022-07-18T07:34:08;22.80;46.60
4107;DHT22;21906;50.812;7.132;2022-07-18T07:36:35;22.90;47.10
4107;DHT22;21906;50.812;7.132;2022-07-18T07:39:01;22.90;45.70
4107;DHT22;21906;50.812;7.132;2022-07-18T07:41:26;22.90;46.30
4107;DHT22;21906;50.812;7.132;2022-07-18T07:43:52;23.00;45.60
4107;DHT22;21906;50.812;7.132;2022-07-18T07:46:18;23.10;45.40
4107;DHT22;21906;50.812;7.132;2022-07-18T07:48:43;23.20;45.40
4107;DHT22;21906;50.812;7.132;2022-07-18T07:51:09;23.20;45.40
4107;DHT22;21906;50.812;7.132;2022-07-18T07:53:35;23.30;47.20
4107;DHT22;21906;50.812;7.132;2022-07-18T07:56:01;23.40;45.80
4107;DHT22;21906;50.812;7.132;2022-07-18T07:58:26;23.40;46.00
4107;DHT22;21906;50.812;7.132;2022-07-18T08:00:53;23.50;47.00
4107;DHT22;21906;50.812;7.132;2022-07-18T08:03:18;23.60;44.40
4107;DHT22;21906;50.812;7.132;2022-07-18T08:05:46;23.70;44.30
4107;DHT22;21906;50.812;7.132;2022-07-18T08:08:13;23.70;44.50
4107;DHT22;21906;50.812;7.132;2022-07-18T08:10:39;23.80;45.70
4107;DHT22;21906;50.812;7.132;2022-07-18T08:13:04;23.90;44.20
4107;DHT22;21906;50.812;7.132;2022-07-18T08:15:30;23.90;45.40
4107;DHT22;21906;50.812;7.132;2022-07-18T08:17:56;24.00;46.30
4107;DHT22;21906;50.812;7.132;2022-07-18T08:20:22;24.10;44.80
4107;DHT22;21906;50.812;7.132;2022-07-18T08:25:22;24.30;44.10
4107;DHT22;21906;50.812;7.132;2022-07-18T08:27:48;24.40;44.90
4107;DHT22;21906;50.812;7.132;2022-07-18T08:30:14;24.50;43.30
4107;DHT22;21906;50.812;7.132;2022-07-18T08:32:39;24.60;41.60
4107;DHT22;21906;50.812;7.132;2022-07-18T08:35:06;24.70;43.40
4107;DHT22;21906;50.812;7.132;2022-07-18T08:37:31;24.80;42.80
4107;DHT22;21906;50.812;7.132;2022-07-18T08:39:57;24.90;42.30
4107;DHT22;21906;50.812;7.132;2022-07-18T08:42:26;24.90;41.50
4107;DHT22;21906;50.812;7.132;2022-07-18T08:44:56;25.10;41.50
4107;DHT22;21906;50.812;7.132;2022-07-18T08:47:22;25.20;42.20
4107;DHT22;21906;50.812;7.132;2022-07-18T08:49:49;25.30;41.30
4107;DHT22;21906;50.812;7.132;2022-07-18T08:52:16;25.40;41.40
4107;DHT22;21906;50.812;7.132;2022-07-18T08:54:42;25.40;42.20
4107;DHT22;21906;50.812;7.132;2022-07-18T08:57:08;25.60;42.40
4107;DHT22;21906;50.812;7.132;2022-07-18T08:59:34;25.60;40.50
4107;DHT22;21906;50.812;7.132;2022-07-18T09:02:00;25.70;41.20
4107;DHT22;21906;50.812;7.132;2022-07-18T09:04:37;25.80;39.80
4107;DHT22;21906;50.812;7.132;2022-07-18T09:07:04;25.90;38.20
4107;DHT22;21906;50.812;7.132;2022-07-18T09:09:31;26.10;37.00
4107;DHT22;21906;50.812;7.132;2022-07-18T09:12:02;26.20;35.80
4107;DHT22;21906;50.812;7.132;2022-07-18T09:17:22;26.30;36.20
4107;DHT22;21906;50.812;7.132;2022-07-18T09:20:07;26.40;35.50
4107;DHT22;21906;50.812;7.132;2022-07-18T09:22:41;26.40;36.00
4107;DHT22;21906;50.812;7.132;2022-07-18T09:25:15;26.60;34.20
4107;DHT22;21906;50.812;7.132;2022-07-18T09:27:44;26.60;34.60
4107;DHT22;21906;50.812;7.132;2022-07-18T09:30:14;26.70;33.50
4107;DHT22;21906;50.812;7.132;2022-07-18T09:32:46;26.80;33.10
4107;DHT22;21906;50.812;7.132;2022-07-18T09:35:17;26.80;33.10
4107;DHT22;21906;50.812;7.132;2022-07-18T09:38:04;26.90;30.80
4107;DHT22;21906;50.812;7.132;2022-07-18T09:40:33;27.00;31.00
4107;DHT22;21906;50.812;7.132;2022-07-18T09:43:02;27.20;30.00
4107;DHT22;21906;50.812;7.132;2022-07-18T09:45:45;27.20;29.90
4107;DHT22;21906;50.812;7.132;2022-07-18T09:48:15;27.20;30.70
4107;DHT22;21906;50.812;7.132;2022-07-18T09:50:53;27.30;29.20
4107;DHT22;21906;50.812;7.132;2022-07-18T09:53:22;27.40;28.60
4107;DHT22;21906;50.812;7.132;2022-07-18T09:55:56;27.40;28.50
4107;DHT22;21906;50.812;7.132;2022-07-18T09:58:28;27.40;30.40
4107;DHT22;21906;50.812;7.132;2022-07-18T10:00:55;27.50;30.70
4107;DHT22;21906;50.812;7.132;2022-07-18T10:03:22;27.60;29.30
4107;DHT22;21906;50.812;7.132;2022-07-18T10:05:50;27.70;28.00
4107;DHT22;21906;50.812;7.132;2022-07-18T10:08:20;27.80;28.60
4107;DHT22;21906;50.812;7.132;2022-07-18T10:10:47;27.80;28.60
4107;DHT22;21906;50.812;7.132;2022-07-18T10:13:15;27.80;28.90
4107;DHT22;21906;50.812;7.132;2022-07-18T10:15:42;27.90;28.10
4107;DHT22;21906;50.812;7.132;2022-07-18T10:18:12;27.90;28.20
4107;DHT22;21906;50.812;7.132;2022-07-18T10:20:41;28.00;27.60
4107;DHT22;21906;50.812;7.132;2022-07-18T10:23:19;28.10;29.10
4107;DHT22;21906;50.812;7.132;2022-07-18T10:26:23;28.30;27.40
4107;DHT22;21906;50.812;7.132;2022-07-18T10:31:25;28.40;29.00
4107;DHT22;21906;50.812;7.132;2022-07-18T10:34:10;28.40;28.80
4107;DHT22;21906;50.812;7.132;2022-07-18T10:39:36;28.60;28.30
4107;DHT22;21906;50.812;7.132;2022-07-18T11:03:05;29.40;24.90
4107;DHT22;21906;50.812;7.132;2022-07-18T11:21:17;29.90;24.50
4107;DHT22;21906;50.812;7.132;2022-07-18T11:23:46;30.00;24.80
4107;DHT22;21906;50.812;7.132;2022-07-18T11:26:17;30.10;24.90
4107;DHT22;21906;50.812;7.132;2022-07-18T11:28:43;30.20;24.70
4107;DHT22;21906;50.812;7.132;2022-07-18T11:31:11;30.30;24.40
4107;DHT22;21906;50.812;7.132;2022-07-18T11:33:39;30.30;26.70
4107;DHT22;21906;50.812;7.132;2022-07-18T11:38:33;30.70;26.10
4107;DHT22;21906;50.812;7.132;2022-07-18T11:41:02;30.90;26.10
4107;DHT22;21906;50.812;7.132;2022-07-18T11:43:28;30.90;26.30
4107;DHT22;21906;50.812;7.132;2022-07-18T11:48:30;31.10;24.40
4107;DHT22;21906;50.812;7.132;2022-07-18T11:50:55;31.20;24.30
4107;DHT22;21906;50.812;7.132;2022-07-18T11:53:21;31.20;24.00
4107;DHT22;21906;50.812;7.132;2022-07-18T11:55:47;31.10;23.80
4107;DHT22;21906;50.812;7.132;2022-07-18T11:58:15;31.00;25.00
4107;DHT22;21906;50.812;7.132;2022-07-18T12:00:44;30.90;25.00
4107;DHT22;21906;50.812;7.132;2022-07-18T12:03:19;30.90;25.00
4107;DHT22;21906;50.812;7.132;2022-07-18T12:05:47;31.00;26.10
4107;DHT22;21906;50.812;7.132;2022-07-18T12:13:56;31.40;25.40
4107;DHT22;21906;50.812;7.132;2022-07-18T12:19:01;31.60;25.80
4107;DHT22;21906;50.812;7.132;2022-07-18T12:24:38;31.70;26.30
4107;DHT22;21906;50.812;7.132;2022-07-18T12:27:23;31.80;25.80
4107;DHT22;21906;50.812;7.132;2022-07-18T12:30:07;31.90;25.50
4107;DHT22;21906;50.812;7.132;2022-07-18T12:35:20;32.00;25.00
4107;DHT22;21906;50.812;7.132;2022-07-18T12:37:59;32.00;26.00
4107;DHT22;21906;50.812;7.132;2022-07-18T12:40:40;32.20;25.60
4107;DHT22;21906;50.812;7.132;2022-07-18T12:43:09;32.40;25.70
4107;DHT22;21906;50.812;7.132;2022-07-18T12:45:36;32.50;25.90
4107;DHT22;21906;50.812;7.132;2022-07-18T12:48:03;32.60;25.80
4107;DHT22;21906;50.812;7.132;2022-07-18T12:50:28;32.60;24.80
4107;DHT22;21906;50.812;7.132;2022-07-18T12:52:54;32.70;24.50
4107;DHT22;21906;50.812;7.132;2022-07-18T12:55:20;32.70;25.10
4107;DHT22;21906;50.812;7.132;2022-07-18T12:57:46;32.80;25.80
4107;DHT22;21906;50.812;7.132;2022-07-18T13:00:12;32.80;23.30
4107;DHT22;21906;50.812;7.132;2022-07-18T13:02:37;32.80;23.20
4107;DHT22;21906;50.812;7.132;2022-07-18T13:05:03;32.90;24.00
4107;DHT22;21906;50.812;7.132;2022-07-18T13:07:29;32.90;24.70
4107;DHT22;21906;50.812;7.132;2022-07-18T13:09:55;32.90;24.40
4107;DHT22;21906;50.812;7.132;2022-07-18T13:12:21;32.90;25.20
4107;DHT22;21906;50.812;7.132;2022-07-18T13:14:47;33.00;25.60
4107;DHT22;21906;50.812;7.132;2022-07-18T13:17:13;33.20;24.80
4107;DHT22;21906;50.812;7.132;2022-07-18T13:19:38;33.40;24.20
4107;DHT22;21906;50.812;7.132;2022-07-18T13:22:05;33.40;24.70
4107;DHT22;21906;50.812;7.132;2022-07-18T13:24:31;33.40;23.80
4107;DHT22;21906;50.812;7.132;2022-07-18T13:26:56;33.30;23.90
4107;DHT22;21906;50.812;7.132;2022-07-18T13:29:22;33.30;24.60
4107;DHT22;21906;50.812;7.132;2022-07-18T13:31:48;33.40;25.00
4107;DHT22;21906;50.812;7.132;2022-07-18T13:34:16;33.50;24.10
4107;DHT22;21906;50.812;7.132;2022-07-18T13:36:41;33.60;24.00
4107;DHT22;21906;50.812;7.132;2022-07-18T13:39:07;33.70;24.70
4107;DHT22;21906;50.812;7.132;2022-07-18T13:41:33;33.80;23.80
4107;DHT22;21906;50.812;7.132;2022-07-18T13:43:58;33.80;24.20
4107;DHT22;21906;50.812;7.132;2022-07-18T13:46:24;33.80;24.30
4107;DHT22;21906;50.812;7.132;2022-07-18T13:48:50;33.90;23.90
4107;DHT22;21906;50.812;7.132;2022-07-18T13:51:16;34.00;24.40
4107;DHT22;21906;50.812;7.132;2022-07-18T13:53:42;34.00;25.30
4107;DHT22;21906;50.812;7.132;2022-07-18T13:56:07;34.10;24.20
4107;DHT22;21906;50.812;7.132;2022-07-18T13:58:33;34.20;23.20
4107;DHT22;21906;50.812;7.132;2022-07-18T14:01:00;34.30;24.50
4107;DHT22;21906;50.812;7.132;2022-07-18T14:03:25;34.40;24.50
4107;DHT22;21906;50.812;7.132;2022-07-18T14:05:51;34.60;23.50
4107;DHT22;21906;50.812;7.132;2022-07-18T14:08:17;34.60;23.50
4107;DHT22;21906;50.812;7.132;2022-07-18T14:10:42;34.70;23.60
4107;DHT22;21906;50.812;7.132;2022-07-18T14:13:09;34.80;24.40
4107;DHT22;21906;50.812;7.132;2022-07-18T14:15:35;34.90;24.20
4107;DHT22;21906;50.812;7.132;2022-07-18T14:18:00;34.90;24.40
4107;DHT22;21906;50.812;7.132;2022-07-18T14:20:27;35.10;24.00
4107;DHT22;21906;50.812;7.132;2022-07-18T14:22:52;35.20;23.20
4107;DHT22;21906;50.812;7.132;2022-07-18T14:25:18;35.30;23.60
4107;DHT22;21906;50.812;7.132;2022-07-18T14:27:45;35.40;20.90
4107;DHT22;21906;50.812;7.132;2022-07-18T14:30:13;35.40;20.80
4107;DHT22;21906;50.812;7.132;2022-07-18T14:32:39;35.40;21.30
4107;DHT22;21906;50.812;7.132;2022-07-18T14:35:05;35.40;22.30
4107;DHT22;21906;50.812;7.132;2022-07-18T14:37:32;35.40;21.70
4107;DHT22;21906;50.812;7.132;2022-07-18T14:39:58;35.40;22.40
4107;DHT22;21906;50.812;7.132;2022-07-18T14:42:24;35.50;22.90
4107;DHT22;21906;50.812;7.132;2022-07-18T14:44:50;35.60;22.50
4107;DHT22;21906;50.812;7.132;2022-07-18T14:47:16;35.90;23.40
4107;DHT22;21906;50.812;7.132;2022-07-18T14:49:41;36.10;22.90
4107;DHT22;21906;50.812;7.132;2022-07-18T14:52:07;36.40;22.20
4107;DHT22;21906;50.812;7.132;2022-07-18T14:54:33;36.70;22.30
4107;DHT22;21906;50.812;7.132;2022-07-18T14:56:58;36.90;21.50
4107;DHT22;21906;50.812;7.132;2022-07-18T14:59:24;37.30;21.10
4107;DHT22;21906;50.812;7.132;2022-07-18T15:01:50;37.60;20.60
4107;DHT22;21906;50.812;7.132;2022-07-18T15:04:16;37.90;19.20
4107;DHT22;21906;50.812;7.132;2022-07-18T15:06:42;38.40;20.60
4107;DHT22;21906;50.812;7.132;2022-07-18T15:09:08;38.70;19.40
4107;DHT22;21906;50.812;7.132;2022-07-18T15:11:38;39.00;18.70
4107;DHT22;21906;50.812;7.132;2022-07-18T15:14:04;39.30;19.50
4107;DHT22;21906;50.812;7.132;2022-07-18T15:16:29;39.80;19.40
4107;DHT22;21906;50.812;7.132;2022-07-18T15:18:55;40.40;18.10
4107;DHT22;21906;50.812;7.132;2022-07-18T15:21:20;40.70;18.50
4107;DHT22;21906;50.812;7.132;2022-07-18T15:23:46;41.10;18.60
4107;DHT22;21906;50.812;7.132;2022-07-18T15:26:12;41.50;18.10
4107;DHT22;21906;50.812;7.132;2022-07-18T15:28:37;42.00;18.00
4107;DHT22;21906;50.812;7.132;2022-07-18T15:31:03;42.20;17.30
4107;DHT22;21906;50.812;7.132;2022-07-18T15:33:29;42.40;16.50
4107;DHT22;21906;50.812;7.132;2022-07-18T15:35:54;42.90;16.20
4107;DHT22;21906;50.812;7.132;2022-07-18T15:38:20;43.00;16.70
4107;DHT22;21906;50.812;7.132;2022-07-18T15:40:46;43.20;15.90
4107;DHT22;21906;50.812;7.132;2022-07-18T15:43:11;43.50;16.60
4107;DHT22;21906;50.812;7.132;2022-07-18T15:45:37;44.10;16.60
4107;DHT22;21906;50.812;7.132;2022-07-18T15:48:03;44.30;16.00
4107;DHT22;21906;50.812;7.132;2022-07-18T15:50:29;44.80;16.30
4107;DHT22;21906;50.812;7.132;2022-07-18T15:52:54;45.50;16.40
4107;DHT22;21906;50.812;7.132;2022-07-18T15:55:20;46.10;16.40
4107;DHT22;21906;50.812;7.132;2022-07-18T15:57:46;46.30;15.50
4107;DHT22;21906;50.812;7.132;2022-07-18T16:00:12;46.70;15.00
4107;DHT22;21906;50.812;7.132;2022-07-18T16:02:38;46.60;14.20
4107;DHT22;21906;50.812;7.132;2022-07-18T16:05:04;46.60;13.50
4107;DHT22;21906;50.812;7.132;2022-07-18T16:07:30;47.20;14.50
4107;DHT22;21906;50.812;7.132;2022-07-18T16:09:56;47.50;14.20
4107;DHT22;21906;50.812;7.132;2022-07-18T16:12:22;47.40;13.40
4107;DHT22;21906;50.812;7.132;2022-07-18T16:14:47;47.60;14.40
4107;DHT22;21906;50.812;7.132;2022-07-18T16:17:13;48.50;14.70
4107;DHT22;21906;50.812;7.132;2022-07-18T16:19:38;49.00;15.10
4107;DHT22;21906;50.812;7.132;2022-07-18T16:22:04;48.60;12.80
4107;DHT22;21906;50.812;7.132;2022-07-18T16:24:30;48.00;13.30
4107;DHT22;21906;50.812;7.132;2022-07-18T16:26:56;48.00;13.40
4107;DHT22;21906;50.812;7.132;2022-07-18T16:29:22;48.20;14.50
4107;DHT22;21906;50.812;7.132;2022-07-18T16:31:48;47.80;14.20
4107;DHT22;21906;50.812;7.132;2022-07-18T16:34:14;48.10;14.70
4107;DHT22;21906;50.812;7.132;2022-07-18T16:36:40;47.80;14.10
4107;DHT22;21906;50.812;7.132;2022-07-18T16:39:06;47.80;15.10
4107;DHT22;21906;50.812;7.132;2022-07-18T16:41:32;46.70;14.40
4107;DHT22;21906;50.812;7.132;2022-07-18T16:43:59;45.90;15.10
4107;DHT22;21906;50.812;7.132;2022-07-18T16:46:25;45.00;15.20
4107;DHT22;21906;50.812;7.132;2022-07-18T16:48:51;43.90;15.20